createdAt,value
2018-11-12T00:01:43.813Z,82.28
2018-11-12T00:04:13.715Z,82.93
2018-11-12T00:06:43.524Z,82.83
2018-11-12T00:09:13.363Z,82.45
2018-11-12T00:11:43.347Z,83.42
2018-11-12T00:14:13.171Z,83.25
2018-11-12T00:16:43.511Z,83.11
2018-11-12T00:19:13.821Z,82.49
2018-11-12T00:21:43.698Z,82.33
2018-11-12T00:24:13.601Z,82.48
2018-11-12T00:26:43.330Z,82.43
2018-11-12T00:29:13.147Z,82.80
2018-11-12T00:31:42.992Z,83.60
2018-11-12T00:34:12.786Z,83.23
2018-11-12T00:36:43.348Z,82.82
2018-11-12T00:39:13.818Z,82.82
2018-11-12T00:41:43.570Z,83.70
2018-11-12T00:44:13.577Z,83.08
2018-11-12T00:46:43.566Z,83.58
2018-11-12T00:49:13.271Z,83.64
2018-11-12T00:51:43.055Z,83.87
2018-11-12T00:54:12.822Z,84.33
2018-11-12T00:56:42.643Z,84.02
2018-11-12T00:59:12.384Z,83.17
2018-11-12T01:01:42.243Z,83.15
2018-11-12T01:04:12.036Z,83.68
2018-11-12T01:06:41.677Z,83.76
2018-11-12T01:09:12.640Z,83.72
2018-11-12T01:11:42.668Z,83.69
2018-11-12T01:14:12.455Z,84.08
2018-11-12T01:16:42.176Z,83.87
2018-11-12T01:19:11.882Z,84.27
2018-11-12T01:21:41.719Z,84.16
2018-11-12T01:24:11.639Z,83.75
2018-11-12T01:26:41.450Z,83.92
2018-11-12T01:29:11.220Z,84.08
2018-11-12T01:31:41.077Z,83.74
2018-11-12T01:34:10.887Z,84.19
2018-11-12T01:36:40.807Z,83.97
2018-11-12T01:39:11.758Z,83.62
2018-11-12T01:41:42.484Z,83.44
2018-11-12T01:44:12.258Z,83.89
2018-11-12T01:46:42.294Z,83.56
2018-11-12T01:49:12.076Z,83.38
2018-11-12T01:51:42.050Z,84.28
2018-11-12T01:54:11.949Z,83.63
2018-11-12T01:56:41.624Z,84.20
2018-11-12T01:59:11.520Z,83.84
2018-11-12T02:01:41.404Z,83.80
2018-11-12T02:04:11.137Z,83.29
2018-11-12T02:06:40.922Z,84.31
2018-11-12T02:09:12.403Z,84.01
2018-11-12T02:11:42.360Z,84.54
2018-11-12T02:14:12.155Z,85.19
2018-11-12T02:16:41.882Z,85.20
2018-11-12T02:19:11.637Z,84.86
2018-11-12T02:21:41.493Z,84.91
2018-11-12T02:24:11.189Z,84.88
2018-11-12T02:26:40.923Z,84.69
2018-11-12T02:29:10.766Z,85.30
2018-11-12T02:31:40.558Z,85.71
2018-11-12T02:34:10.293Z,85.50
2018-11-12T02:36:40.072Z,85.54
2018-11-12T02:39:11.545Z,85.54
2018-11-12T02:41:41.499Z,85.66
2018-11-12T02:44:11.399Z,85.55
2018-11-12T02:46:41.203Z,84.83
2018-11-12T02:49:11.089Z,84.87
2018-11-12T02:51:40.855Z,84.71
2018-11-12T02:54:10.917Z,85.09
2018-11-12T02:56:40.715Z,85.10
2018-11-12T02:59:11.160Z,85.43
2018-11-12T03:01:41.016Z,85.27
2018-11-12T03:04:10.699Z,85.43
2018-11-12T03:06:40.644Z,85.23
2018-11-12T03:09:13.300Z,85.90
2018-11-12T03:11:43.878Z,85.64
2018-11-12T03:14:13.725Z,85.58
2018-11-12T03:16:43.453Z,85.91
2018-11-12T03:19:13.323Z,85.92
2018-11-12T03:21:43.152Z,85.07
2018-11-12T03:24:12.868Z,86.09
2018-11-12T03:26:42.598Z,85.79
2018-11-12T03:29:12.514Z,85.79
2018-11-12T03:31:42.335Z,86.00
2018-11-12T03:34:12.256Z,85.56
2018-11-12T03:36:42.050Z,85.91
2018-11-12T03:39:12.335Z,86.03
2018-11-12T03:41:42.352Z,86.32
2018-11-12T03:44:12.175Z,86.41
2018-11-12T03:46:42.564Z,85.83
2018-11-12T03:49:12.259Z,86.62
2018-11-12T03:51:42.057Z,86.00
2018-11-12T03:54:11.886Z,87.06
2018-11-12T03:56:41.794Z,86.47
2018-11-12T03:59:12.163Z,87.16
2018-11-12T04:01:44.911Z,86.33
2018-11-12T04:04:16.637Z,87.37
2018-11-12T04:06:47.113Z,86.87
2018-11-12T04:09:16.814Z,87.66
2018-11-12T04:11:46.726Z,87.10
2018-11-12T04:14:16.522Z,86.79
2018-11-12T04:16:46.450Z,87.39
2018-11-12T04:19:16.245Z,87.23
2018-11-12T04:21:46.076Z,87.31
2018-11-12T04:24:16.508Z,87.83
2018-11-12T04:26:46.511Z,87.55
2018-11-12T04:29:16.297Z,87.92
2018-11-12T04:31:46.052Z,87.74
2018-11-12T04:34:16.041Z,87.79
2018-11-12T04:36:45.847Z,88.21
2018-11-12T04:39:16.282Z,87.87
2018-11-12T04:41:45.982Z,88.32
2018-11-12T04:44:15.783Z,87.65
2018-11-12T04:46:45.503Z,87.84
2018-11-12T04:49:15.308Z,87.86
2018-11-12T04:51:45.024Z,88.12
2018-11-12T04:54:14.719Z,88.06
2018-11-12T04:56:44.467Z,88.18
2018-11-12T04:59:14.432Z,88.54
2018-11-12T05:01:44.291Z,88.58
2018-11-12T05:04:14.151Z,88.63
2018-11-12T05:06:43.963Z,88.46
2018-11-12T05:09:13.733Z,88.01
2018-11-12T05:11:43.400Z,87.99
2018-11-12T05:14:13.350Z,88.30
2018-11-12T05:16:43.308Z,88.38
2018-11-12T05:19:13.239Z,87.96
2018-11-12T05:21:43.071Z,88.00
2018-11-12T05:24:13.540Z,88.23
2018-11-12T05:26:43.457Z,88.64
2018-11-12T05:29:13.138Z,87.98
2018-11-12T05:31:42.839Z,87.74
2018-11-12T05:34:12.662Z,88.39
2018-11-12T05:36:42.402Z,88.00
2018-11-12T05:39:13.430Z,87.85
2018-11-12T05:41:43.082Z,88.02
2018-11-12T05:44:12.847Z,88.70
2018-11-12T05:46:42.635Z,88.34
2018-11-12T05:49:12.574Z,87.75
2018-11-12T05:51:42.419Z,87.48
2018-11-12T05:54:12.630Z,87.86
2018-11-12T05:56:42.308Z,88.39
2018-11-12T05:59:12.094Z,88.64
2018-11-12T06:01:41.881Z,88.19
2018-11-12T06:04:11.626Z,88.84
2018-11-12T06:06:41.358Z,88.15
2018-11-12T06:09:12.363Z,88.25
2018-11-12T06:11:42.065Z,88.83
2018-11-12T06:14:11.820Z,88.27
2018-11-12T06:16:41.762Z,88.63
2018-11-12T06:19:11.707Z,88.23
2018-11-12T06:21:41.652Z,88.46
2018-11-12T06:24:11.367Z,89.07
2018-11-12T06:26:41.332Z,88.65
2018-11-12T06:29:11.415Z,88.72
2018-11-12T06:31:41.370Z,88.62
2018-11-12T06:34:11.143Z,88.82
2018-11-12T06:36:41.020Z,89.21
2018-11-12T06:39:10.894Z,88.44
2018-11-12T06:41:41.588Z,88.62
2018-11-12T06:44:11.293Z,88.97
2018-11-12T06:46:41.441Z,88.88
2018-11-12T06:49:11.141Z,88.90
2018-11-12T06:51:40.839Z,89.46
2018-11-12T06:54:10.535Z,89.56
2018-11-12T06:56:40.410Z,89.60
2018-11-12T06:59:10.214Z,89.40
2018-11-12T07:01:39.899Z,89.85
2018-11-12T07:04:09.799Z,89.51
2018-11-12T07:06:39.616Z,89.90
2018-11-12T07:09:12.307Z,89.17
2018-11-12T07:11:42.238Z,89.27
2018-11-12T07:14:11.900Z,89.90
2018-11-12T07:16:41.859Z,89.37
2018-11-12T07:19:12.178Z,89.63
2018-11-12T07:21:42.187Z,89.33
2018-11-12T07:24:13.224Z,90.12
2018-11-12T07:26:43.262Z,89.41
2018-11-12T07:29:15.462Z,89.32
2018-11-12T07:31:46.182Z,90.17
2018-11-12T07:34:16.961Z,89.59
2018-11-12T07:36:47.099Z,89.88
2018-11-12T07:39:17.475Z,89.81
2018-11-12T07:41:47.429Z,89.42
2018-11-12T07:44:18.485Z,90.22
2018-11-12T07:46:49.006Z,89.37
2018-11-12T07:49:20.947Z,89.81
2018-11-12T07:51:50.674Z,90.22
2018-11-12T07:54:21.965Z,89.84
2018-11-12T07:56:51.598Z,89.88
2018-11-12T07:59:21.802Z,89.54
2018-11-12T08:01:51.598Z,89.53
2018-11-12T08:04:21.422Z,89.40
2018-11-12T08:06:52.784Z,90.45
2018-11-12T08:09:22.559Z,90.49
2018-11-12T08:11:52.464Z,90.04
2018-11-12T08:14:22.238Z,90.88
2018-11-12T08:16:52.003Z,90.76
2018-11-12T08:19:21.917Z,90.66
2018-11-12T08:21:51.815Z,90.64
2018-11-12T08:24:21.597Z,90.63
2018-11-12T08:26:51.219Z,90.46
2018-11-12T08:29:21.047Z,89.99
2018-11-12T08:31:51.138Z,89.55
2018-11-12T08:34:20.954Z,89.62
2018-11-12T08:36:51.692Z,90.34
2018-11-12T08:39:21.675Z,88.42
2018-11-12T08:41:51.430Z,87.98
2018-11-12T08:44:21.263Z,88.88
2018-11-12T08:46:51.107Z,88.27
2018-11-12T08:49:20.906Z,88.96
2018-11-12T08:51:50.698Z,88.99
2018-11-12T08:54:20.502Z,88.41
2018-11-12T08:56:50.146Z,88.78
2018-11-12T08:59:20.212Z,88.43
2018-11-12T09:01:50.015Z,87.05
2018-11-12T09:04:19.874Z,87.40
2018-11-12T09:06:49.688Z,87.10
2018-11-12T09:09:31.287Z,86.89
2018-11-12T09:12:01.196Z,87.16
2018-11-12T09:14:30.982Z,87.46
2018-11-12T09:17:00.699Z,87.26
2018-11-12T09:19:30.999Z,86.10
2018-11-12T09:22:01.019Z,86.46
2018-11-12T09:24:31.893Z,86.37
2018-11-12T09:27:01.765Z,87.00
2018-11-12T09:29:32.770Z,87.13
2018-11-12T09:32:02.403Z,88.04
2018-11-12T09:34:32.288Z,87.31
2018-11-12T09:37:02.322Z,87.09
2018-11-12T09:39:32.022Z,86.84
2018-11-12T09:42:01.715Z,86.40
2018-11-12T09:44:31.505Z,86.59
2018-11-12T09:47:01.369Z,86.58
2018-11-12T09:49:31.564Z,86.84
2018-11-12T09:52:01.455Z,87.33
2018-11-12T09:54:31.330Z,86.79
2018-11-12T09:57:01.776Z,87.31
2018-11-12T09:59:31.620Z,87.61
2018-11-12T10:02:02.212Z,87.33
2018-11-12T10:04:32.580Z,88.07
2018-11-12T10:07:03.372Z,86.60
2018-11-12T10:09:33.332Z,87.00
2018-11-12T10:12:02.967Z,87.54
2018-11-12T10:14:33.988Z,86.75
2018-11-12T10:17:03.652Z,87.24
2018-11-12T10:19:30.570Z,86.73
2018-11-12T10:22:00.452Z,87.31
2018-11-12T10:24:30.141Z,87.39
2018-11-12T10:27:00.101Z,87.21
2018-11-12T10:29:29.878Z,86.90
2018-11-12T10:31:59.912Z,86.67
2018-11-12T10:34:29.606Z,87.30
2018-11-12T10:36:59.987Z,86.75
2018-11-12T10:39:30.178Z,86.60
2018-11-12T10:42:00.003Z,87.39
2018-11-12T10:44:29.797Z,87.94
2018-11-12T10:46:59.492Z,87.69
2018-11-12T10:49:29.419Z,87.21
2018-11-12T10:51:59.691Z,86.81
2018-11-12T10:54:29.682Z,85.78
2018-11-12T10:56:59.714Z,86.28
2018-11-12T10:59:29.506Z,85.30
2018-11-12T11:02:04.658Z,86.28
2018-11-12T11:04:34.502Z,84.94
2018-11-12T11:07:04.181Z,84.45
2018-11-12T11:09:34.477Z,85.48
2018-11-12T11:12:04.407Z,86.25
2018-11-12T11:14:34.186Z,85.42
2018-11-12T11:17:04.862Z,85.13
2018-11-12T11:19:34.854Z,85.99
2018-11-12T11:22:04.819Z,85.64
2018-11-12T11:24:34.697Z,86.30
2018-11-12T11:27:04.567Z,86.12
2018-11-12T11:29:34.415Z,86.23
2018-11-12T11:32:04.478Z,85.77
2018-11-12T11:34:34.388Z,86.25
2018-11-12T11:37:04.286Z,85.39
2018-11-12T11:39:34.281Z,85.16
2018-11-12T11:42:04.178Z,85.30
2018-11-12T11:44:33.874Z,85.05
2018-11-12T11:47:03.666Z,85.15
2018-11-12T11:49:33.567Z,84.33
2018-11-12T11:52:03.331Z,84.69
2018-11-12T11:54:33.076Z,83.97
2018-11-12T11:57:03.033Z,84.66
2018-11-12T11:59:32.761Z,84.17
2018-11-12T12:02:02.528Z,85.20
2018-11-12T12:04:32.343Z,85.82
2018-11-12T12:07:02.391Z,85.33
2018-11-12T12:09:32.277Z,85.61
2018-11-12T12:12:02.231Z,86.44
2018-11-12T12:14:31.923Z,86.70
2018-11-12T12:17:02.762Z,86.73
2018-11-12T12:19:32.582Z,87.02
2018-11-12T12:22:02.431Z,86.49
2018-11-12T12:24:32.235Z,85.42
2018-11-12T12:27:01.862Z,86.67
2018-11-12T12:29:31.958Z,86.02
2018-11-12T12:32:01.899Z,86.87
2018-11-12T12:34:32.330Z,85.79
2018-11-12T12:37:02.067Z,86.62
2018-11-12T12:39:31.803Z,87.28
2018-11-12T12:42:01.810Z,87.07
2018-11-12T12:44:33.539Z,88.11
2018-11-12T12:47:03.977Z,88.09
2018-11-12T12:49:34.717Z,88.16
2018-11-12T12:52:05.737Z,87.17
2018-11-12T12:54:35.876Z,88.13
2018-11-12T12:57:05.898Z,88.16
2018-11-12T12:59:35.706Z,87.76
2018-11-12T13:02:05.723Z,88.42
2018-11-12T13:04:35.515Z,89.09
2018-11-12T13:07:05.181Z,89.31
2018-11-12T13:09:35.016Z,88.14
2018-11-12T13:12:04.875Z,87.86
2018-11-12T13:14:34.628Z,88.19
2018-11-12T13:17:04.311Z,87.99
2018-11-12T13:19:34.141Z,88.00
2018-11-12T13:22:03.887Z,87.02
2018-11-12T13:24:33.766Z,87.12
2018-11-12T13:27:03.515Z,86.64
2018-11-12T13:29:33.426Z,85.63
2018-11-12T13:32:03.277Z,85.86
2018-11-12T13:34:34.069Z,85.42
2018-11-12T13:37:03.813Z,85.09
2018-11-12T13:39:33.580Z,85.28
2018-11-12T13:42:03.330Z,85.22
2018-11-12T13:44:33.002Z,84.91
2018-11-12T13:47:02.855Z,85.55
2018-11-12T13:49:32.638Z,85.65
2018-11-12T13:52:03.286Z,84.99
2018-11-12T13:54:33.074Z,84.75
2018-11-12T13:57:02.943Z,84.36
2018-11-12T13:59:32.819Z,84.70
2018-11-12T14:02:02.660Z,84.58
2018-11-12T14:04:32.507Z,83.84
2018-11-12T14:07:02.501Z,84.00
2018-11-12T14:09:32.454Z,84.21
2018-11-12T14:12:03.127Z,84.28
2018-11-12T14:14:33.134Z,85.38
2018-11-12T14:17:02.980Z,84.86
2018-11-12T14:19:32.711Z,84.65
2018-11-12T14:22:04.680Z,84.80
2018-11-12T14:24:34.546Z,85.22
2018-11-12T14:27:04.352Z,85.46
2018-11-12T14:29:34.289Z,84.62
2018-11-12T14:32:04.213Z,84.65
2018-11-12T14:34:34.197Z,84.94
2018-11-12T14:37:04.250Z,85.52
2018-11-12T14:39:34.474Z,85.18
2018-11-12T14:42:04.211Z,84.86
2018-11-12T14:44:34.309Z,85.47
2018-11-12T14:47:04.195Z,85.93
2018-11-12T14:49:34.066Z,85.89
2018-11-12T14:52:03.763Z,86.00
2018-11-12T14:54:33.615Z,85.19
2018-11-12T14:57:03.474Z,85.84
2018-11-12T14:59:33.259Z,85.46
2018-11-12T15:02:03.302Z,85.67
2018-11-12T15:04:33.274Z,86.03
2018-11-12T15:07:03.228Z,86.38
2018-11-12T15:09:33.234Z,86.42
2018-11-12T15:12:03.142Z,86.85
2018-11-12T15:14:32.910Z,85.94
2018-11-12T15:17:02.913Z,86.68
2018-11-12T15:19:32.667Z,86.72
2018-11-12T15:22:02.752Z,86.55
2018-11-12T15:24:33.111Z,86.56
2018-11-12T15:27:03.536Z,86.87
2018-11-12T15:29:33.633Z,86.57
2018-11-12T15:32:03.274Z,86.19
2018-11-12T15:34:33.040Z,86.17
2018-11-12T15:37:03.290Z,87.02
2018-11-12T15:39:33.011Z,86.83
2018-11-12T15:42:02.895Z,86.79
2018-11-12T15:44:32.714Z,86.22
2018-11-12T15:47:02.859Z,86.99
2018-11-12T15:49:32.586Z,86.54
2018-11-12T15:52:02.443Z,86.09
2018-11-12T15:54:32.211Z,86.27
2018-11-12T15:57:02.238Z,87.06
2018-11-12T15:59:32.058Z,86.33
2018-11-12T16:02:01.845Z,86.31
2018-11-12T16:04:31.742Z,86.88
2018-11-12T16:07:01.503Z,87.18
2018-11-12T16:09:31.305Z,87.61
2018-11-12T16:12:02.006Z,87.39
2018-11-12T16:14:32.860Z,86.97
2018-11-12T16:17:04.166Z,87.36
2018-11-12T16:19:33.884Z,87.51
2018-11-12T16:22:03.616Z,87.09
2018-11-12T16:24:33.472Z,87.84
2018-11-12T16:27:03.370Z,87.54
2018-11-12T16:29:40.110Z,86.99
2018-11-12T16:32:09.932Z,87.05
2018-11-12T16:34:39.732Z,87.01
2018-11-12T16:37:09.500Z,87.50
2018-11-12T16:39:39.562Z,87.49
2018-11-12T16:42:09.410Z,87.08
2018-11-12T16:44:39.755Z,86.76
2018-11-12T16:47:09.615Z,87.08
2018-11-12T16:49:39.603Z,87.31
2018-11-12T16:52:09.931Z,86.68
2018-11-12T16:54:39.704Z,87.33
2018-11-12T16:57:09.540Z,86.68
2018-11-12T16:59:39.363Z,86.73
2018-11-12T17:02:09.263Z,87.34
2018-11-12T17:04:39.995Z,86.61
2018-11-12T17:07:09.773Z,86.95
2018-11-12T17:09:39.746Z,87.21
2018-11-12T17:12:10.108Z,87.54
2018-11-12T17:14:39.946Z,86.43
2018-11-12T17:17:09.775Z,86.49
2018-11-12T17:19:39.620Z,86.63
2018-11-12T17:22:09.494Z,87.05
2018-11-12T17:24:39.293Z,86.71
2018-11-12T17:27:09.086Z,86.77
2018-11-12T17:29:39.026Z,86.65
2018-11-12T17:32:08.810Z,86.53
2018-11-12T17:34:38.716Z,86.84
2018-11-12T17:37:08.564Z,86.44
2018-11-12T17:39:39.445Z,86.37
2018-11-12T17:42:09.329Z,87.07
2018-11-12T17:44:39.305Z,86.47
2018-11-12T17:47:10.902Z,86.91
2018-11-12T17:49:41.016Z,86.91
2018-11-12T17:52:10.818Z,86.46
2018-11-12T17:54:40.833Z,85.72
2018-11-12T17:57:10.689Z,85.87
2018-11-12T17:59:40.502Z,86.87
2018-11-12T18:02:10.395Z,87.20
2018-11-12T18:04:40.387Z,87.15
2018-11-12T18:07:10.791Z,86.85
2018-11-12T18:09:40.713Z,87.48
2018-11-12T18:12:10.513Z,87.17
2018-11-12T18:14:40.422Z,86.80
2018-11-12T18:17:10.164Z,87.16
2018-11-12T18:19:39.980Z,87.05
2018-11-12T18:22:10.018Z,86.31
2018-11-12T18:24:39.866Z,87.07
2018-11-12T18:27:09.826Z,86.85
2018-11-12T18:29:40.521Z,87.26
2018-11-12T18:32:10.234Z,86.81
2018-11-12T18:34:40.051Z,87.27
2018-11-12T18:37:09.900Z,87.13
2018-11-12T18:39:39.770Z,86.79
2018-11-12T18:42:09.914Z,87.59
2018-11-12T18:44:39.796Z,87.98
2018-11-12T18:47:09.745Z,87.30
2018-11-12T18:49:39.887Z,87.52
2018-11-12T18:52:09.783Z,87.53
2018-11-12T18:54:40.171Z,88.14
2018-11-12T18:57:10.273Z,88.13
2018-11-12T18:59:40.041Z,88.27
2018-11-12T19:02:10.082Z,87.81
2018-11-12T19:04:39.958Z,88.62
2018-11-12T19:07:09.854Z,88.68
2018-11-12T19:09:39.842Z,88.17
2018-11-12T19:12:09.650Z,88.23
2018-11-12T19:14:39.731Z,87.85
2018-11-12T19:17:09.620Z,88.78
2018-11-12T19:19:39.512Z,88.47
2018-11-12T19:22:09.613Z,88.67
2018-11-12T19:24:39.567Z,89.10
2018-11-12T19:27:10.094Z,88.94
2018-11-12T19:29:40.142Z,89.32
2018-11-12T19:32:10.111Z,88.78
2018-11-12T19:34:40.050Z,89.06
2018-11-12T19:37:09.974Z,88.57
2018-11-12T19:39:39.967Z,88.67
2018-11-12T19:42:10.038Z,89.12
2018-11-12T19:44:40.170Z,88.34
2018-11-12T19:47:09.969Z,88.97
2018-11-12T19:49:40.006Z,89.31
2018-11-12T19:52:10.115Z,88.77
2018-11-12T19:54:40.031Z,88.97
2018-11-12T19:57:10.779Z,88.84
2018-11-12T19:59:41.480Z,88.70
2018-11-12T20:02:11.217Z,88.54
2018-11-12T20:04:41.190Z,88.95
2018-11-12T20:07:11.196Z,89.02
2018-11-12T20:09:41.003Z,88.02
2018-11-12T20:12:11.136Z,88.88
2018-11-12T20:14:40.880Z,88.35
2018-11-12T20:17:10.975Z,88.14
2018-11-12T20:19:40.871Z,88.96
2018-11-12T20:22:10.756Z,88.66
2018-11-12T20:24:40.857Z,88.14
2018-11-12T20:27:10.679Z,88.69
2018-11-12T20:29:40.555Z,88.76
2018-11-12T20:32:10.438Z,88.42
2018-11-12T20:34:40.245Z,88.26
2018-11-12T20:37:10.087Z,88.25
2018-11-12T20:39:40.482Z,88.46
2018-11-12T20:42:10.399Z,88.23
2018-11-12T20:44:40.214Z,88.32
2018-11-12T20:47:10.140Z,88.66
2018-11-12T20:49:40.391Z,88.20
2018-11-12T20:52:10.206Z,88.54
2018-11-12T20:54:40.206Z,88.38
2018-11-12T20:57:10.066Z,87.48
2018-11-12T20:59:39.807Z,88.29
2018-11-12T21:02:09.636Z,87.69
2018-11-12T21:04:39.443Z,87.24
2018-11-12T21:07:09.371Z,87.29
2018-11-12T21:09:39.622Z,87.19
2018-11-12T21:12:09.403Z,87.60
2018-11-12T21:14:39.922Z,86.84
2018-11-12T21:17:09.707Z,86.98
2018-11-12T21:19:39.715Z,87.63
2018-11-12T21:22:13.762Z,87.55
2018-11-12T21:24:44.001Z,87.74
2018-11-12T21:27:13.793Z,87.68
2018-11-12T21:29:43.717Z,87.96
2018-11-12T21:32:13.771Z,87.11
2018-11-12T21:34:43.585Z,87.20
2018-11-12T21:37:14.090Z,87.83
2018-11-12T21:39:44.060Z,86.99
2018-11-12T21:42:13.927Z,87.75
2018-11-12T21:44:43.895Z,87.43
2018-11-12T21:47:13.863Z,87.00
2018-11-12T21:49:44.538Z,87.88
2018-11-12T21:52:14.687Z,87.55
2018-11-12T21:54:44.625Z,87.61
2018-11-12T21:57:14.620Z,87.00
2018-11-12T21:59:44.597Z,87.46
2018-11-12T22:02:14.547Z,87.58
2018-11-12T22:04:44.245Z,87.37
2018-11-12T22:07:14.262Z,88.01
2018-11-12T22:09:44.169Z,87.22
2018-11-12T22:12:14.115Z,88.02
2018-11-12T22:14:43.926Z,87.20
2018-11-12T22:17:13.858Z,87.57
2018-11-12T22:19:44.051Z,86.93
2018-11-12T22:22:13.669Z,86.98
2018-11-12T22:24:43.750Z,87.39
2018-11-12T22:27:13.591Z,87.49
2018-11-12T22:29:43.586Z,86.92
2018-11-12T22:32:13.459Z,86.49
2018-11-12T22:34:43.460Z,87.03
2018-11-12T22:37:13.407Z,86.05
2018-11-12T22:39:44.078Z,87.05
2018-11-12T22:42:13.898Z,86.42
2018-11-12T22:44:43.613Z,86.32
2018-11-12T22:47:13.436Z,86.84
2018-11-12T22:49:43.867Z,86.35
2018-11-12T22:52:14.085Z,86.46
2018-11-12T22:54:43.922Z,86.41
2018-11-12T22:57:13.710Z,86.83
2018-11-12T22:59:43.491Z,86.47
2018-11-12T23:02:13.450Z,86.44
2018-11-12T23:04:43.337Z,85.40
2018-11-12T23:07:13.203Z,85.93
2018-11-12T23:09:42.950Z,85.59
2018-11-12T23:12:12.860Z,85.17
2018-11-12T23:14:42.575Z,84.95
2018-11-12T23:17:12.461Z,85.15
2018-11-12T23:19:42.294Z,85.73
2018-11-12T23:22:12.188Z,85.22
2018-11-12T23:24:42.151Z,86.01
2018-11-12T23:27:11.953Z,85.65
2018-11-12T23:29:41.771Z,85.70
2018-11-12T23:32:11.615Z,86.13
2018-11-12T23:34:41.357Z,85.97
2018-11-12T23:37:11.166Z,86.55
2018-11-12T23:39:41.031Z,85.72
2018-11-12T23:42:11.015Z,86.19
2018-11-12T23:44:40.940Z,86.26
2018-11-12T23:47:10.898Z,86.28
2018-11-12T23:49:41.392Z,85.70
2018-11-12T23:52:11.130Z,85.49
2018-11-12T23:54:41.047Z,85.41
2018-11-12T23:57:10.772Z,85.11
2018-11-12T23:59:41.088Z,86.05
